Главная страница
METAR-TAF:

METAR-TAF

Аэропорты :

Арвидсъяур, Швеция

широта: 65-35-25N, долгота: 019-16-55E, высота над уровнем моря: 379 м

Текущие метеонаблюдения

Эта сводка был подготовлена 17 минут назад, в 20:50 UTC
Ветер 3 Узел от северо-северо-восточный
Температура 11°C
Влажность 82%
Давление 1012 hPa
Видимость 10 км и более

METAR: ESNX 132050Z AUTO 03003KT 9999 NCD 11/08 Q1012

Время: 23:07 (21:07 UTC)

Прогноз

Эта сводка был подготовлена 6 часа и 37 минут назад, в 14:30 UTC
Прогноз действительный с 13-го 15 UTC до 13-го 19 UTC
Ветер 3 Узел переменных направлений
Видимость 10 км и более
Отдельные облака на высоте 5000 фута
временами
С 13-го 15 UTC до 13-го 19 UTC
Видимость: 4000 м
Рассеянная облачность на высоте 5000 фута, Кучево-дождевые.
гроза, дождь,

TAF: ESNX 131430Z 1315/1319 VRB03KT 9999 SCT050 TEMPO 1315/1319 4000 TSRA BKN050CB

Метеонаблюдения и прогнозы для более 4000 аэропортов (сводки METAR и TAF).

Имеющиеся станции представлены на карте желтыми и красными точками.

Чтобы увидеть название станции, наведите на нее мышь.

Затем щелкните, чтобы увидеть метеонаблюдения и метеопрогнозы.

Управление картой: чтобы увеличить масштаб, щелкните зеленые кнопки с черным крестиком; чтобы уменьшить масштаб, щелкните зеленую кнопку с тире; для просмотра соседних карт щелкайте зеленые стрелки.


METAR-TAF: